Time;durP1;ratioP1;P1;durP2;ratioP2;P2;SDS_P1;SDS_P2;PMS_P1;PMS_P2;Temp;Humidity;BMP_temperature;BMP_pressure;BME280_temperature;BME280_humidity;BME280_pressure;Samples;Min_cycle;Max_cycle;Signal;HPM_P1;HPM_P2
2022/11/27 00:01:17;;;;;;;6.10;5.60;;;20.20;64.80;;;;;;5010518;28;20467;-73
2022/11/27 00:03:45;;;;;;;5.73;5.33;;;20.20;64.80;;;;;;5009284;28;20473;-73
2022/11/27 00:06:15;;;;;;;5.90;5.40;;;20.20;64.80;;;;;;5010909;28;20973;-73
2022/11/27 00:08:45;;;;;;;6.27;5.77;;;20.20;64.80;;;;;;5010609;28;20465;-73
2022/11/27 00:11:16;;;;;;;5.57;5.17;;;20.20;64.80;;;;;;5009624;28;20462;-73
2022/11/27 00:13:45;;;;;;;6.93;6.33;;;20.20;64.80;;;;;;5010177;28;20464;-73
2022/11/27 00:16:14;;;;;;;6.73;6.23;;;20.20;64.80;;;;;;5010855;28;20439;-73
2022/11/27 00:18:43;;;;;;;5.73;5.30;;;20.10;64.80;;;;;;5010649;28;21019;-73
2022/11/27 00:21:13;;;;;;;6.50;6.00;;;20.20;64.80;;;;;;5005503;28;20456;-73
2022/11/27 00:23:41;;;;;;;6.50;5.90;;;20.10;64.80;;;;;;5010403;28;20480;-72
2022/11/27 00:26:10;;;;;;;5.73;5.33;;;20.10;64.80;;;;;;5004171;28;20538;-72
2022/11/27 00:28:39;;;;;;;6.30;5.70;;;20.10;64.90;;;;;;5009015;28;20451;-73
2022/11/27 00:31:12;;;;;;;6.20;5.70;;;20.10;64.80;;;;;;5009297;28;20455;-73
2022/11/27 00:33:41;;;;;;;5.63;5.23;;;20.10;64.80;;;;;;5006600;28;20832;-74
2022/11/27 00:36:10;;;;;;;5.77;5.37;;;20.10;64.90;;;;;;5011456;28;20884;-73
2022/11/27 00:38:38;;;;;;;6.03;5.53;;;20.10;64.90;;;;;;5014135;28;20465;-73
2022/11/27 00:41:08;;;;;;;5.57;5.27;;;20.10;64.90;;;;;;5013578;28;20993;-72
2022/11/27 00:43:37;;;;;;;5.70;5.30;;;20.10;64.90;;;;;;5013623;28;20821;-73
2022/11/27 00:46:13;;;;;;;6.23;5.73;;;20.10;64.90;;;;;;5013675;28;20803;-73
2022/11/27 00:48:42;;;;;;;5.00;4.63;;;20.10;64.90;;;;;;5013181;28;20497;-72
2022/11/27 00:51:13;;;;;;;5.20;4.80;;;20.10;64.90;;;;;;5012355;28;20501;-73
2022/11/27 00:53:41;;;;;;;5.50;5.10;;;20.10;64.90;;;;;;5012007;28;20508;-73
2022/11/27 00:56:14;;;;;;;6.20;5.70;;;20.10;64.90;;;;;;5009908;28;20864;-73
2022/11/27 00:58:42;;;;;;;5.47;5.07;;;20.10;64.90;;;;;;5012607;28;20451;-73
2022/11/27 01:01:17;;;;;;;5.90;5.40;;;20.10;64.90;;;;;;5007197;28;20468;-73
2022/11/27 01:03:46;;;;;;;4.77;4.47;;;20.10;64.90;;;;;;5007073;28;20467;-72
2022/11/27 01:06:15;;;;;;;5.40;5.00;;;20.10;64.90;;;;;;5011180;28;20837;-73
2022/11/27 01:08:43;;;;;;;5.03;4.63;;;20.10;65.00;;;;;;5009972;28;20938;-72
2022/11/27 01:11:14;;;;;;;5.63;5.23;;;20.10;65.00;;;;;;5013239;28;20461;-73
2022/11/27 01:13:42;;;;;;;5.30;4.90;;;20.10;64.90;;;;;;5013390;28;20534;-72
2022/11/27 01:16:13;;;;;;;5.37;4.97;;;20.10;65.00;;;;;;5012255;28;20466;-73
2022/11/27 01:18:44;;;;;;;5.10;4.70;;;20.10;65.00;;;;;;5012651;28;20450;-73
2022/11/27 01:21:13;;;;;;;5.83;5.23;;;20.10;65.00;;;;;;5013632;28;20450;-73
2022/11/27 01:23:41;;;;;;;5.80;5.40;;;20.10;65.00;;;;;;5011491;28;21026;-72
2022/11/27 01:26:11;;;;;;;5.73;5.33;;;20.10;65.00;;;;;;5012576;28;20457;-72
2022/11/27 01:28:39;;;;;;;4.83;4.53;;;20.10;65.00;;;;;;5010454;28;20567;-73
2022/11/27 01:31:09;;;;;;;5.00;4.60;;;20.10;65.00;;;;;;5012273;28;20828;-73
2022/11/27 01:33:42;;;;;;;5.03;4.63;;;20.10;65.00;;;;;;5012162;28;20970;-73
2022/11/27 01:36:12;;;;;;;5.67;5.27;;;20.10;65.00;;;;;;5012730;28;21103;-73
2022/11/27 01:38:41;;;;;;;4.87;4.47;;;20.00;65.00;;;;;;5012558;28;20450;-73
2022/11/27 01:41:14;;;;;;;5.40;5.00;;;20.10;65.00;;;;;;5012392;28;20464;-73
2022/11/27 01:43:45;;;;;;;5.07;4.77;;;20.00;65.00;;;;;;5010421;28;20921;-72
2022/11/27 01:46:29;;;;;;;5.37;5.03;;;20.00;65.00;;;;;;5013164;28;20528;-73
2022/11/27 01:49:07;;;;;;;5.17;4.80;;;20.00;65.10;;;;;;5011458;28;20924;-73
2022/11/27 01:51:37;;;;;;;5.50;5.10;;;20.00;65.10;;;;;;5012681;28;20463;-73
2022/11/27 01:54:05;;;;;;;4.87;4.50;;;20.00;65.10;;;;;;5009868;28;20469;-72
2022/11/27 01:56:33;;;;;;;6.23;5.80;;;20.00;65.10;;;;;;5012619;28;20492;-73
2022/11/27 01:59:03;;;;;;;5.00;4.70;;;20.00;65.10;;;;;;5010930;28;20545;-73
2022/11/27 02:01:32;;;;;;;5.27;4.97;;;20.00;65.10;;;;;;5012617;28;20807;-73
2022/11/27 02:04:02;;;;;;;5.10;4.70;;;20.00;65.10;;;;;;5011488;28;20456;-73
2022/11/27 02:06:30;;;;;;;5.07;4.67;;;20.00;65.10;;;;;;5012543;28;20453;-72
2022/11/27 02:08:58;;;;;;;5.20;4.80;;;20.00;65.10;;;;;;5011528;28;20823;-72
2022/11/27 02:11:36;;;;;;;5.10;4.70;;;20.00;65.10;;;;;;5012430;28;20793;-73
2022/11/27 02:14:11;;;;;;;5.97;5.47;;;20.00;65.10;;;;;;5010956;28;20541;-73
2022/11/27 02:16:43;;;;;;;5.60;5.20;;;20.00;65.10;;;;;;5009718;28;20442;-72
2022/11/27 02:19:25;;;;;;;4.30;3.93;;;20.00;65.10;;;;;;5009062;28;20462;-73
2022/11/27 02:21:59;;;;;;;4.80;4.50;;;20.00;65.20;;;;;;5011745;28;20449;-73
2022/11/27 02:24:46;;;;;;;5.00;4.70;;;20.00;65.20;;;;;;5008331;28;20989;-73
2022/11/27 02:27:30;;;;;;;5.20;4.80;;;20.00;65.20;;;;;;5012465;28;20478;-73
2022/11/27 02:30:03;;;;;;;5.17;4.70;;;20.00;65.20;;;;;;5010838;28;20499;-73
2022/11/27 02:32:38;;;;;;;4.60;4.30;;;20.00;65.20;;;;;;5011955;28;20464;-73
2022/11/27 02:35:12;;;;;;;5.10;4.80;;;20.00;65.20;;;;;;5011575;28;20533;-73
2022/11/27 02:37:48;;;;;;;4.63;4.33;;;20.00;65.20;;;;;;5011031;28;20933;-73
2022/11/27 02:40:23;;;;;;;4.73;4.40;;;20.00;65.20;;;;;;5011930;28;20439;-73
2022/11/27 02:42:56;;;;;;;4.63;4.30;;;20.00;65.20;;;;;;5011619;28;20447;-73
2022/11/27 02:45:31;;;;;;;4.50;4.20;;;20.00;65.20;;;;;;5010601;28;20547;-72
2022/11/27 02:48:00;;;;;;;5.20;4.80;;;20.00;65.20;;;;;;5011879;28;20485;-73
2022/11/27 02:50:31;;;;;;;5.50;5.00;;;20.00;65.20;;;;;;5010118;28;20824;-73
2022/11/27 02:53:04;;;;;;;4.50;4.20;;;20.00;65.20;;;;;;5002453;28;20462;-72
2022/11/27 02:55:35;;;;;;;5.57;5.13;;;20.00;65.20;;;;;;5010295;28;20453;-73
2022/11/27 02:58:09;;;;;;;5.07;4.70;;;19.90;65.20;;;;;;5011516;28;20456;-73
2022/11/27 03:00:40;;;;;;;5.10;4.70;;;19.90;65.20;;;;;;5009902;28;20459;-73
2022/11/27 03:03:12;;;;;;;5.10;4.70;;;19.90;65.20;;;;;;5009719;28;20465;-73
2022/11/27 03:05:43;;;;;;;4.20;3.93;;;19.90;65.20;;;;;;5008844;28;20475;-73
2022/11/27 03:08:18;;;;;;;4.70;4.30;;;19.90;65.20;;;;;;5004493;28;20575;-73
2022/11/27 03:10:54;;;;;;;4.57;4.17;;;19.90;65.20;;;;;;5004414;28;20459;-72
2022/11/27 03:13:22;;;;;;;5.17;4.77;;;19.90;65.20;;;;;;5009914;28;20959;-73
2022/11/27 03:16:02;;;;;;;5.63;5.20;;;19.90;65.20;;;;;;5010688;28;20835;-72
2022/11/27 03:18:37;;;;;;;4.73;4.43;;;19.90;65.20;;;;;;5009231;28;20454;-73
2022/11/27 03:21:13;;;;;;;4.30;3.90;;;19.90;65.30;;;;;;5011202;28;20543;-73
2022/11/27 03:23:41;;;;;;;4.07;3.77;;;19.90;65.30;;;;;;5009624;28;20488;-73
2022/11/27 03:26:09;;;;;;;4.70;4.30;;;19.90;65.30;;;;;;5011045;28;20465;-73
2022/11/27 03:28:38;;;;;;;4.50;4.20;;;19.90;65.30;;;;;;5009691;28;20572;-73
2022/11/27 03:31:08;;;;;;;4.47;4.10;;;19.90;65.30;;;;;;5010833;28;20470;-73
2022/11/27 03:33:36;;;;;;;4.67;4.37;;;19.90;65.20;;;;;;5011512;28;20461;-73
2022/11/27 03:36:12;;;;;;;4.40;4.10;;;19.90;65.30;;;;;;5010770;28;20459;-73
2022/11/27 03:38:41;;;;;;;4.03;3.73;;;19.90;65.30;;;;;;4998720;28;20461;-73
2022/11/27 03:41:14;;;;;;;4.90;4.50;;;19.90;65.30;;;;;;5011408;28;20465;-72
2022/11/27 03:43:54;;;;;;;4.27;3.97;;;19.90;65.30;;;;;;5011058;28;20561;-73
2022/11/27 03:46:31;;;;;;;4.50;4.20;;;19.90;65.30;;;;;;5009482;28;20445;-73
2022/11/27 03:49:07;;;;;;;4.30;4.00;;;19.90;65.30;;;;;;5011258;28;20489;-72
2022/11/27 03:51:46;;;;;;;4.30;3.90;;;19.90;65.30;;;;;;5009121;28;20455;-73
2022/11/27 03:54:26;;;;;;;4.30;4.00;;;19.90;65.30;;;;;;5010743;28;20442;-73
2022/11/27 03:57:00;;;;;;;4.60;4.10;;;19.90;65.30;;;;;;5009788;28;20458;-73
2022/11/27 03:59:32;;;;;;;4.17;3.87;;;19.90;65.30;;;;;;5009601;28;21036;-73
2022/11/27 04:02:02;;;;;;;4.03;3.73;;;19.90;65.30;;;;;;5010842;28;20456;-73
2022/11/27 04:04:30;;;;;;;4.13;3.83;;;19.90;65.30;;;;;;5010800;28;21066;-73
2022/11/27 04:06:58;;;;;;;4.37;4.07;;;19.90;65.30;;;;;;5005380;28;20446;-73
2022/11/27 04:09:26;;;;;;;4.00;3.70;;;19.90;65.40;;;;;;5010381;28;20821;-72
2022/11/27 04:11:54;;;;;;;4.10;3.80;;;19.90;65.30;;;;;;5006109;28;20450;-72
2022/11/27 04:14:22;;;;;;;4.23;3.93;;;19.90;65.30;;;;;;5012323;28;20521;-72
2022/11/27 04:16:50;;;;;;;4.33;4.00;;;19.80;65.30;;;;;;5014233;28;20450;-73
2022/11/27 04:19:20;;;;;;;4.60;4.27;;;19.80;65.40;;;;;;5014369;28;20471;-73
2022/11/27 04:21:48;;;;;;;4.10;3.80;;;19.80;65.40;;;;;;5013845;28;20949;-73
2022/11/27 04:24:16;;;;;;;3.90;3.60;;;19.80;65.30;;;;;;4995749;28;20999;-72
2022/11/27 04:26:44;;;;;;;4.30;4.00;;;19.80;65.30;;;;;;5009609;28;20475;-72
2022/11/27 04:29:12;;;;;;;3.63;3.43;;;19.80;65.40;;;;;;5009313;28;20474;-72
2022/11/27 04:31:40;;;;;;;4.20;3.90;;;19.80;65.40;;;;;;5013651;28;20461;-73
2022/11/27 04:34:09;;;;;;;4.40;4.10;;;19.80;65.40;;;;;;5013008;28;20835;-73
2022/11/27 04:36:38;;;;;;;4.33;3.90;;;19.80;65.40;;;;;;5013562;28;20452;-73
2022/11/27 04:39:06;;;;;;;4.37;4.07;;;19.80;65.40;;;;;;5013268;28;20883;-73
2022/11/27 04:41:35;;;;;;;3.73;3.53;;;19.80;65.40;;;;;;5014431;28;20444;-73
2022/11/27 04:44:03;;;;;;;4.40;4.10;;;19.80;65.40;;;;;;5012404;28;20456;-74
2022/11/27 04:46:31;;;;;;;3.83;3.50;;;19.80;65.40;;;;;;5014464;28;20438;-73
2022/11/27 04:48:59;;;;;;;3.60;3.40;;;19.80;65.40;;;;;;5013715;28;20515;-73
2022/11/27 04:51:27;;;;;;;3.87;3.57;;;19.80;65.40;;;;;;5012949;28;20485;-73
2022/11/27 04:53:57;;;;;;;3.83;3.63;;;19.80;65.40;;;;;;5013332;28;20521;-73
2022/11/27 04:56:26;;;;;;;3.73;3.43;;;19.80;65.40;;;;;;5012600;28;20922;-72
2022/11/27 04:58:54;;;;;;;4.40;4.00;;;19.80;65.40;;;;;;5004827;28;21301;-73
2022/11/27 05:01:22;;;;;;;3.77;3.53;;;19.80;65.40;;;;;;5013045;28;20964;-73
2022/11/27 05:03:50;;;;;;;4.17;3.87;;;19.80;65.40;;;;;;5010627;28;20466;-73
2022/11/27 05:06:21;;;;;;;4.50;4.10;;;19.80;65.50;;;;;;5009376;28;20542;-72
2022/11/27 05:08:49;;;;;;;3.43;3.23;;;19.80;65.40;;;;;;5008808;28;20454;-73
2022/11/27 05:11:19;;;;;;;4.20;3.90;;;19.80;65.40;;;;;;5011105;28;20449;-73
2022/11/27 05:13:47;;;;;;;3.70;3.50;;;19.80;65.50;;;;;;5011314;28;20545;-73
2022/11/27 05:16:15;;;;;;;4.43;4.13;;;19.80;65.50;;;;;;5013725;28;20457;-73
2022/11/27 05:18:43;;;;;;;4.20;3.90;;;19.80;65.50;;;;;;5013089;28;20461;-73
2022/11/27 05:21:11;;;;;;;3.70;3.50;;;19.80;65.40;;;;;;5012698;28;20468;-73
2022/11/27 05:23:39;;;;;;;4.23;3.93;;;19.70;65.50;;;;;;5013164;28;20483;-73
2022/11/27 05:26:08;;;;;;;3.70;3.50;;;19.70;65.50;;;;;;5013016;28;20447;-73
2022/11/27 05:28:37;;;;;;;3.40;3.20;;;19.70;65.50;;;;;;5010727;28;20512;-72
2022/11/27 05:31:05;;;;;;;3.20;3.00;;;19.70;65.50;;;;;;5002714;28;20479;-72
2022/11/27 05:33:34;;;;;;;3.93;3.63;;;19.70;65.50;;;;;;5012835;28;20491;-72
2022/11/27 05:36:02;;;;;;;4.10;3.80;;;19.70;65.50;;;;;;5013488;28;20463;-73
2022/11/27 05:38:30;;;;;;;3.93;3.63;;;19.70;65.50;;;;;;5007506;28;20448;-73
2022/11/27 05:40:58;;;;;;;4.30;3.90;;;19.70;65.50;;;;;;5008626;28;20450;-73
2022/11/27 05:43:26;;;;;;;3.73;3.50;;;19.70;65.50;;;;;;5008854;28;20438;-73
2022/11/27 05:45:56;;;;;;;3.80;3.60;;;19.70;65.50;;;;;;5012053;28;20486;-72
2022/11/27 05:48:24;;;;;;;3.63;3.43;;;19.70;65.50;;;;;;5012260;28;20478;-73
2022/11/27 05:50:52;;;;;;;3.27;3.07;;;19.70;65.50;;;;;;5012538;28;20466;-72
2022/11/27 05:53:20;;;;;;;3.77;3.57;;;19.70;65.50;;;;;;5011242;28;20464;-72
2022/11/27 05:55:48;;;;;;;3.50;3.30;;;19.70;65.50;;;;;;5012177;28;20470;-73
2022/11/27 05:58:16;;;;;;;3.90;3.60;;;19.70;65.50;;;;;;5011547;28;20474;-73
2022/11/27 06:00:45;;;;;;;3.60;3.40;;;19.70;65.50;;;;;;5001513;28;20470;-72
2022/11/27 06:03:15;;;;;;;3.40;3.20;;;19.70;65.50;;;;;;5005484;28;20462;-73
2022/11/27 06:05:43;;;;;;;3.30;3.10;;;19.70;65.50;;;;;;5008874;28;20473;-72
2022/11/27 06:08:11;;;;;;;3.57;3.20;;;19.70;65.50;;;;;;5011214;28;20976;-73
2022/11/27 06:10:40;;;;;;;3.43;3.23;;;19.70;65.50;;;;;;5007015;28;20565;-73
2022/11/27 06:13:08;;;;;;;3.53;3.23;;;19.70;65.50;;;;;;5012107;28;20461;-73
2022/11/27 06:15:37;;;;;;;3.40;3.17;;;19.70;65.50;;;;;;5007916;28;20457;-73
2022/11/27 06:18:05;;;;;;;3.53;3.23;;;19.70;65.50;;;;;;5010754;28;20459;-72
2022/11/27 06:20:35;;;;;;;3.47;3.17;;;19.70;65.50;;;;;;5008333;28;20482;-73
2022/11/27 06:23:10;;;;;;;3.20;3.00;;;19.70;65.50;;;;;;5008141;28;20584;-73
2022/11/27 06:25:38;;;;;;;3.47;3.27;;;19.70;65.50;;;;;;5011350;28;20443;-72
2022/11/27 06:28:07;;;;;;;4.50;4.10;;;19.70;65.60;;;;;;5008878;28;20478;-73
2022/11/27 06:30:36;;;;;;;4.20;3.90;;;19.70;65.60;;;;;;5007402;28;20467;-73
2022/11/27 06:33:04;;;;;;;3.47;3.20;;;19.70;65.50;;;;;;5010503;28;20940;-73
2022/11/27 06:35:33;;;;;;;3.57;3.13;;;19.70;65.60;;;;;;5009587;28;20458;-73
2022/11/27 06:38:02;;;;;;;3.13;2.93;;;19.70;65.60;;;;;;5005518;28;20472;-73
2022/11/27 06:40:30;;;;;;;3.13;2.93;;;19.70;65.50;;;;;;5009688;28;20540;-73
2022/11/27 06:42:58;;;;;;;4.07;3.67;;;19.60;65.50;;;;;;5007765;28;20467;-73
2022/11/27 06:45:26;;;;;;;3.17;2.97;;;19.70;65.50;;;;;;5009102;28;20468;-73
2022/11/27 06:47:54;;;;;;;3.20;3.00;;;19.70;65.60;;;;;;5010553;28;20499;-73
2022/11/27 06:50:23;;;;;;;3.13;2.90;;;19.70;65.60;;;;;;5010894;28;20826;-73
2022/11/27 06:52:51;;;;;;;3.20;3.00;;;19.60;65.60;;;;;;5009382;28;20469;-73
2022/11/27 06:55:20;;;;;;;2.77;2.57;;;19.60;65.60;;;;;;5005123;28;20451;-73
2022/11/27 06:57:50;;;;;;;3.13;2.93;;;19.60;65.60;;;;;;5009326;28;20807;-73
2022/11/27 07:00:19;;;;;;;3.17;2.97;;;19.60;65.60;;;;;;5008643;28;20965;-73
2022/11/27 07:02:47;;;;;;;3.47;3.27;;;19.60;65.60;;;;;;5009279;28;20457;-73
2022/11/27 07:05:15;;;;;;;3.07;2.67;;;19.60;65.60;;;;;;5008899;28;20979;-72
2022/11/27 07:07:43;;;;;;;3.60;3.40;;;19.60;65.60;;;;;;5010236;28;20461;-72
2022/11/27 07:10:12;;;;;;;2.80;2.60;;;19.60;65.60;;;;;;5010249;28;20527;-73
2022/11/27 07:12:41;;;;;;;3.63;3.33;;;19.60;65.60;;;;;;5004790;28;20449;-73
2022/11/27 07:15:10;;;;;;;3.33;3.13;;;19.60;65.60;;;;;;5010027;28;20882;-73
2022/11/27 07:17:38;;;;;;;2.90;2.70;;;19.60;65.60;;;;;;5011335;28;20532;-72
2022/11/27 07:20:07;;;;;;;3.10;2.90;;;19.60;65.60;;;;;;5009837;28;20448;-72
2022/11/27 07:22:35;;;;;;;3.23;3.03;;;19.60;65.60;;;;;;5010081;28;20464;-72
2022/11/27 07:25:04;;;;;;;2.87;2.70;;;19.60;65.60;;;;;;5009108;28;20587;-73
2022/11/27 07:27:32;;;;;;;3.20;2.90;;;19.60;65.60;;;;;;5003515;28;20492;-73
2022/11/27 07:30:02;;;;;;;2.67;2.50;;;19.60;65.60;;;;;;5009127;28;20455;-72
2022/11/27 07:32:31;;;;;;;3.20;3.00;;;19.60;65.60;;;;;;5010188;28;20469;-73
2022/11/27 07:34:59;;;;;;;2.87;2.77;;;19.60;65.60;;;;;;5010190;28;21001;-73
2022/11/27 07:37:30;;;;;;;2.80;2.60;;;19.60;65.60;;;;;;5002358;28;20540;-73
2022/11/27 07:39:59;;;;;;;3.37;3.17;;;19.60;65.60;;;;;;5010671;28;20459;-73
2022/11/27 07:42:30;;;;;;;2.63;2.43;;;19.60;65.60;;;;;;5008208;28;20459;-72
2022/11/27 07:45:09;;;;;;;3.20;3.00;;;19.60;65.60;;;;;;5009275;28;20553;-72
2022/11/27 07:47:38;;;;;;;3.00;2.80;;;19.60;65.60;;;;;;5007721;28;20909;-72
2022/11/27 07:50:08;;;;;;;3.23;3.03;;;19.60;65.60;;;;;;5013512;28;20477;-73
2022/11/27 07:52:36;;;;;;;3.70;3.50;;;19.60;65.60;;;;;;5014578;28;20457;-72
2022/11/27 07:55:10;;;;;;;2.87;2.67;;;19.60;65.60;;;;;;5013096;28;20456;-72
2022/11/27 07:57:38;;;;;;;3.10;2.90;;;19.60;65.60;;;;;;5015064;28;20442;-72
2022/11/27 08:00:11;;;;;;;2.60;2.40;;;19.60;65.70;;;;;;5014304;28;20545;-72
2022/11/27 08:02:39;;;;;;;3.13;2.93;;;19.60;65.80;;;;;;5010677;28;20468;-72
2022/11/27 08:05:09;;;;;;;2.60;2.40;;;19.60;65.70;;;;;;5013523;28;20468;-73
2022/11/27 08:07:40;;;;;;;2.60;2.50;;;19.60;65.70;;;;;;5011836;28;20501;-72
2022/11/27 08:10:09;;;;;;;2.40;2.30;;;19.60;65.80;;;;;;5015007;28;20454;-72
2022/11/27 08:12:37;;;;;;;2.93;2.73;;;19.50;65.80;;;;;;5012058;28;20548;-73
2022/11/27 08:15:06;;;;;;;2.60;2.50;;;19.50;65.80;;;;;;5005439;28;20468;-73
2022/11/27 08:17:35;;;;;;;3.27;3.03;;;19.50;65.80;;;;;;5002701;28;20458;-72
2022/11/27 08:20:05;;;;;;;2.87;2.67;;;19.50;65.80;;;;;;5005430;28;20457;-72
2022/11/27 08:22:34;;;;;;;2.80;2.60;;;19.50;65.80;;;;;;5005349;28;20471;-72
2022/11/27 08:25:02;;;;;;;2.97;2.77;;;19.50;65.80;;;;;;5010123;28;20508;-76
2022/11/27 08:27:31;;;;;;;2.83;2.70;;;19.50;65.80;;;;;;5005872;28;20532;-73
2022/11/27 08:30:00;;;;;;;2.97;2.77;;;19.50;65.80;;;;;;5010940;28;20463;-73
2022/11/27 08:32:28;;;;;;;2.80;2.60;;;19.50;65.80;;;;;;5010181;28;20501;-73
2022/11/27 08:34:57;;;;;;;2.30;2.20;;;19.50;65.80;;;;;;5000238;28;20956;-73
2022/11/27 08:37:26;;;;;;;2.10;2.00;;;19.50;65.80;;;;;;5009791;28;20483;-73
2022/11/27 08:39:54;;;;;;;3.10;2.90;;;19.50;65.80;;;;;;5008705;28;20465;-73
2022/11/27 08:42:22;;;;;;;3.17;2.97;;;19.50;65.80;;;;;;5006549;28;20458;-73
2022/11/27 08:44:50;;;;;;;2.10;2.00;;;19.50;65.80;;;;;;5007699;28;20464;-72
2022/11/27 08:47:18;;;;;;;2.57;2.47;;;19.50;65.80;;;;;;5001739;28;20485;-72
2022/11/27 08:49:46;;;;;;;2.50;2.40;;;19.50;65.80;;;;;;5002880;28;20473;-72
2022/11/27 08:52:19;;;;;;;2.30;2.20;;;19.50;65.80;;;;;;5007100;28;20795;-72
2022/11/27 08:54:47;;;;;;;2.80;2.67;;;19.50;65.80;;;;;;5008067;28;20560;-72
2022/11/27 08:57:22;;;;;;;2.30;2.20;;;19.50;65.80;;;;;;4997616;28;20975;-72
2022/11/27 08:59:51;;;;;;;2.63;2.43;;;19.50;65.80;;;;;;5006124;28;20479;-73
2022/11/27 09:02:19;;;;;;;2.00;1.90;;;19.50;65.80;;;;;;5006986;28;20474;-72
2022/11/27 09:04:47;;;;;;;2.30;2.20;;;19.50;65.80;;;;;;5008999;28;20962;-71
2022/11/27 09:07:16;;;;;;;2.53;2.33;;;19.50;65.80;;;;;;5004384;28;20457;-71
2022/11/27 09:09:45;;;;;;;2.47;2.37;;;19.50;65.80;;;;;;5005711;28;20457;-70
2022/11/27 09:12:13;;;;;;;2.07;1.97;;;19.50;65.80;;;;;;5010528;28;20479;-70
2022/11/27 09:14:41;;;;;;;2.73;2.53;;;19.50;65.80;;;;;;5012773;28;20886;-70
2022/11/27 09:17:10;;;;;;;2.80;2.60;;;19.50;65.80;;;;;;5006143;28;20887;-70
2022/11/27 09:19:38;;;;;;;2.77;2.60;;;19.50;65.80;;;;;;5013134;28;20504;-70
2022/11/27 09:22:06;;;;;;;2.23;2.13;;;19.50;65.80;;;;;;4991702;28;20462;-70
2022/11/27 09:24:36;;;;;;;2.30;2.20;;;19.50;65.80;;;;;;5009408;28;20489;-71
2022/11/27 09:27:04;;;;;;;2.30;2.20;;;19.50;65.80;;;;;;5010095;28;20523;-70
2022/11/27 09:29:34;;;;;;;3.50;2.23;;;19.50;65.80;;;;;;5011427;28;20465;-76
2022/11/27 09:32:02;;;;;;;2.10;2.00;;;19.50;65.80;;;;;;5012555;28;20485;-75
2022/11/27 09:34:30;;;;;;;3.80;3.10;;;19.50;65.20;;;;;;5003908;28;20776;-74
2022/11/27 09:37:04;;;;;;;3.80;3.50;;;19.60;64.90;;;;;;5007080;28;20505;-75
2022/11/27 09:39:33;;;;;;;4.10;3.80;;;19.60;64.90;;;;;;5012560;28;20484;-73
2022/11/27 09:42:05;;;;;;;5.43;4.20;;;19.70;64.90;;;;;;5007146;28;20960;-75
2022/11/27 09:44:39;;;;;;;7.90;4.50;;;19.70;64.80;;;;;;5008002;28;20459;-72
2022/11/27 09:47:17;;;;;;;5.30;4.80;;;19.70;64.80;;;;;;5006896;28;20865;-73
2022/11/27 09:49:49;;;;;;;7.73;5.23;;;19.70;64.80;;;;;;5009953;28;20461;-74
2022/11/27 09:52:23;;;;;;;8.03;5.30;;;19.80;64.80;;;;;;5005607;28;20480;-70
2022/11/27 09:54:57;;;;;;;5.53;4.20;;;19.80;64.80;;;;;;5005136;28;20562;-77
2022/11/27 09:57:32;;;;;;;5.43;4.47;;;19.90;64.80;;;;;;5003225;28;20488;-76
2022/11/27 10:00:04;;;;;;;9.00;5.30;;;19.90;64.80;;;;;;5007574;28;20542;-75
2022/11/27 10:02:33;;;;;;;5.63;5.03;;;19.90;64.80;;;;;;5009431;28;20476;-74
2022/11/27 10:05:10;;;;;;;5.93;4.70;;;19.90;64.90;;;;;;5009742;28;20550;-76
2022/11/27 10:07:52;;;;;;;5.30;4.80;;;19.90;64.90;;;;;;5006706;28;20462;-77
2022/11/27 10:10:32;;;;;;;5.03;4.43;;;19.90;64.90;;;;;;5001804;28;20987;-74
2022/11/27 10:13:14;;;;;;;8.33;4.40;;;20.00;64.90;;;;;;5008893;28;21313;-76
2022/11/27 10:15:48;;;;;;;6.27;4.53;;;20.00;65.00;;;;;;5009405;28;20460;-77
2022/11/27 10:18:29;;;;;;;6.43;4.83;;;20.00;65.00;;;;;;4997166;28;20858;-76
2022/11/27 10:21:03;;;;;;;4.13;3.43;;;20.00;65.00;;;;;;5003910;28;20451;-76
2022/11/27 10:23:41;;;;;;;5.30;4.73;;;20.00;65.10;;;;;;4999280;28;20488;-77
2022/11/27 10:26:17;;;;;;;4.03;3.70;;;20.00;65.10;;;;;;5001932;28;20458;-77
2022/11/27 10:28:54;;;;;;;6.27;3.57;;;20.00;65.10;;;;;;5003200;28;20456;-73
2022/11/27 10:31:33;;;;;;;4.23;3.77;;;20.00;65.10;;;;;;4987324;28;20485;-76
2022/11/27 10:34:05;;;;;;;4.77;3.67;;;20.00;65.10;;;;;;4996061;28;20490;-76
2022/11/27 10:36:38;;;;;;;5.23;4.00;;;20.00;65.10;;;;;;5004177;28;20565;-77
2022/11/27 10:39:15;;;;;;;3.63;3.27;;;20.00;65.10;;;;;;5003744;28;20920;-75
2022/11/27 10:41:51;;;;;;;5.00;4.47;;;20.00;65.10;;;;;;4997975;28;20932;-78
2022/11/27 10:44:29;;;;;;;4.17;3.77;;;20.00;65.10;;;;;;4984852;28;20470;-78
2022/11/27 10:47:02;;;;;;;5.83;3.90;;;20.00;65.20;;;;;;5000389;28;20452;-77
2022/11/27 10:49:30;;;;;;;7.20;4.50;;;20.00;65.20;;;;;;5008542;28;20459;-77
2022/11/27 10:51:59;;;;;;;5.73;3.87;;;20.00;65.10;;;;;;5003489;28;20912;-78
2022/11/27 10:54:30;;;;;;;7.10;4.20;;;20.00;65.10;;;;;;5006879;28;20546;-78
2022/11/27 10:57:14;;;;;;;3.50;3.10;;;20.10;65.00;;;;;;5007410;28;20460;-78
2022/11/27 10:59:48;;;;;;;4.17;3.60;;;20.00;65.00;;;;;;5003682;28;20456;-78
2022/11/27 11:02:28;;;;;;;5.70;3.90;;;20.00;65.00;;;;;;5006988;28;20463;-72
2022/11/27 11:04:56;;;;;;;3.93;3.63;;;20.10;65.00;;;;;;5008599;28;20460;-75
2022/11/27 11:07:55;;;;;;;4.13;3.03;;;20.00;65.00;;;;;;4999821;28;20469;-75
2022/11/27 11:10:28;;;;;;;6.63;3.60;;;20.00;65.00;;;;;;5003166;28;21011;-76
2022/11/27 11:13:18;;;;;;;6.00;3.20;;;20.00;65.00;;;;;;5005633;28;20828;-73
2022/11/27 11:15:52;;;;;;;3.57;3.27;;;20.00;65.00;;;;;;4994213;28;21531;-73
2022/11/27 11:18:23;;;;;;;3.67;3.00;;;20.00;65.00;;;;;;5007519;28;21007;-74
2022/11/27 11:20:54;;;;;;;5.33;3.73;;;20.00;65.00;;;;;;5008902;28;20471;-74
2022/11/27 11:23:33;;;;;;;3.77;2.90;;;20.00;65.00;;;;;;5001394;28;20495;-74
2022/11/27 11:26:05;;;;;;;7.70;3.53;;;20.00;65.10;;;;;;5007686;28;20462;-74
2022/11/27 11:28:41;;;;;;;13.27;3.47;;;20.00;65.00;;;;;;5009841;28;20450;-69
2022/11/27 11:31:16;;;;;;;12.10;4.00;;;20.00;65.00;;;;;;5002678;28;20541;-70
2022/11/27 11:33:51;;;;;;;7.57;4.07;;;20.00;65.00;;;;;;5005159;28;20824;-72
2022/11/27 11:36:19;;;;;;;13.73;4.60;;;20.00;65.50;;;;;;5009445;28;20536;-73
2022/11/27 11:38:48;;;;;;;11.73;5.00;;;20.00;68.50;;;;;;5006006;28;21033;-72
2022/11/27 11:41:17;;;;;;;9.47;5.00;;;20.00;69.20;;;;;;5005930;28;20459;-72
2022/11/27 11:43:58;;;;;;;9.67;5.07;;;20.10;69.80;;;;;;5007484;28;20475;-72
2022/11/27 11:46:31;;;;;;;10.80;4.17;;;20.10;69.50;;;;;;5002308;28;20864;-69
2022/11/27 11:49:04;;;;;;;5.47;3.63;;;20.10;70.20;;;;;;5000362;28;20827;-72
2022/11/27 11:51:58;;;;;;;9.40;4.53;;;20.10;70.00;;;;;;5005735;28;20481;-74
2022/11/27 11:54:38;;;;;;;13.60;5.10;;;20.10;69.30;;;;;;5001683;28;20483;-74
2022/11/27 11:57:23;;;;;;;10.73;4.90;;;20.10;71.10;;;;;;5006816;28;20452;-73
2022/11/27 11:59:58;;;;;;;17.97;5.80;;;20.10;74.20;;;;;;5004644;28;20489;-73
2022/11/27 12:02:46;;;;;;;15.77;5.50;;;20.10;74.80;;;;;;5005274;28;20453;-81
2022/11/27 12:05:26;;;;;;;11.10;6.53;;;20.20;75.20;;;;;;5002313;28;20946;-77
2022/11/27 12:08:27;;;;;;;14.83;6.90;;;20.20;75.50;;;;;;5001817;28;20470;-80
2022/11/27 12:11:05;;;;;;;20.33;6.50;;;20.20;74.90;;;;;;4983592;28;20565;-83
2022/11/27 12:13:44;;;;;;;20.10;5.93;;;20.20;75.00;;;;;;5007085;28;21093;-80
2022/11/27 12:16:19;;;;;;;19.27;5.90;;;20.20;75.50;;;;;;5005375;28;20553;-84
2022/11/27 12:19:04;;;;;;;18.03;6.43;;;20.20;75.00;;;;;;4999508;28;20448;-73
2022/11/27 12:21:43;;;;;;;15.67;6.00;;;20.20;74.60;;;;;;5005402;28;20469;-85
2022/11/27 12:24:31;;;;;;;10.30;4.87;;;20.30;74.70;;;;;;5007738;28;20502;-78
2022/11/27 12:27:08;;;;;;;11.53;5.60;;;20.30;74.40;;;;;;5006830;28;20538;-76
2022/11/27 12:30:02;;;;;;;8.90;5.33;;;20.30;74.20;;;;;;5006253;28;20461;-85
2022/11/27 12:32:49;;;;;;;13.90;4.70;;;20.30;74.00;;;;;;5010038;28;20498;-85
2022/11/27 12:35:33;;;;;;;16.13;4.97;;;20.20;73.70;;;;;;5008483;28;20524;-84
2022/11/27 12:38:27;;;;;;;8.70;4.03;;;20.20;73.40;;;;;;5008100;28;20577;-81
2022/11/27 12:41:07;;;;;;;12.73;3.80;;;20.20;73.20;;;;;;5012700;28;20562;-82
2022/11/27 12:43:40;;;;;;;7.57;4.10;;;20.20;72.90;;;;;;5004016;28;20980;-85
2022/11/27 12:46:15;;;;;;;12.80;5.07;;;20.20;72.70;;;;;;5007119;28;20455;-83
2022/11/27 12:48:49;;;;;;;6.87;4.33;;;20.20;72.30;;;;;;5010390;28;20474;-83
2022/11/27 12:51:23;;;;;;;5.30;3.70;;;20.20;72.10;;;;;;5006157;28;20548;-80
2022/11/27 12:53:56;;;;;;;6.60;3.73;;;20.20;71.90;;;;;;4999394;28;20502;-70
2022/11/27 12:56:27;;;;;;;5.77;4.00;;;20.20;71.30;;;;;;5006841;28;20466;-81
2022/11/27 12:59:02;;;;;;;12.10;4.83;;;20.20;70.50;;;;;;5008052;28;20469;-80
2022/11/27 13:01:34;;;;;;;9.43;4.47;;;20.10;69.80;;;;;;5005878;28;20444;-76
2022/11/27 13:04:18;;;;;;;6.63;3.90;;;20.10;69.20;;;;;;5004035;28;20462;-78
2022/11/27 13:06:54;;;;;;;4.50;3.10;;;20.10;69.60;;;;;;5006879;28;20462;-81
2022/11/27 13:09:32;;;;;;;4.90;4.10;;;20.10;70.50;;;;;;5005425;28;22149;-83